sensor_id;sensor_type;location;lat;lon;timestamp;pressure;altitude;pressure_sealevel;temperature;humidity
77047;BME280;65977;56.380;44.022;2023-02-01T00:01:57;99925.75;;;1.21;55.08
77047;BME280;65977;56.380;44.022;2023-02-01T00:04:22;99925.66;;;1.23;55.24
77047;BME280;65977;56.380;44.022;2023-02-01T00:06:48;99929.19;;;1.22;54.98
77047;BME280;65977;56.380;44.022;2023-02-01T00:09:14;99929.09;;;1.23;55.08
77047;BME280;65977;56.380;44.022;2023-02-01T00:11:40;99944.59;;;1.25;55.20
77047;BME280;65977;56.380;44.022;2023-02-01T00:14:06;99935.88;;;1.26;54.65
77047;BME280;65977;56.380;44.022;2023-02-01T00:16:33;99939.59;;;1.22;54.92
77047;BME280;65977;56.380;44.022;2023-02-01T00:19:04;99932.53;;;1.24;55.08
77047;BME280;65977;56.380;44.022;2023-02-01T00:21:31;99935.03;;;1.25;55.09
77047;BME280;65977;56.380;44.022;2023-02-01T00:23:57;99933.56;;;1.21;54.82
77047;BME280;65977;56.380;44.022;2023-02-01T00:26:38;99941.38;;;1.21;55.04
77047;BME280;65977;56.380;44.022;2023-02-01T00:29:11;99937.16;;;1.19;55.34
77047;BME280;65977;56.380;44.022;2023-02-01T00:31:38;99933.81;;;1.17;55.47
77047;BME280;65977;56.380;44.022;2023-02-01T00:34:04;99931.13;;;1.18;55.28
77047;BME280;65977;56.380;44.022;2023-02-01T00:36:29;99933.63;;;1.20;55.31
77047;BME280;65977;56.380;44.022;2023-02-01T00:38:55;99932.88;;;1.18;54.97
77047;BME280;65977;56.380;44.022;2023-02-01T00:41:22;99944.22;;;1.17;55.40
77047;BME280;65977;56.380;44.022;2023-02-01T00:43:50;99942.88;;;1.10;55.35
77047;BME280;65977;56.380;44.022;2023-02-01T00:46:17;99936.84;;;1.09;55.29
77047;BME280;65977;56.380;44.022;2023-02-01T00:48:44;99943.38;;;1.16;55.63
77047;BME280;65977;56.380;44.022;2023-02-01T00:51:13;99935.06;;;1.10;55.39
77047;BME280;65977;56.380;44.022;2023-02-01T00:53:39;99934.75;;;1.16;55.53
77047;BME280;65977;56.380;44.022;2023-02-01T00:56:05;99927.59;;;1.19;55.29
77047;BME280;65977;56.380;44.022;2023-02-01T00:58:32;99930.22;;;1.19;55.32
77047;BME280;65977;56.380;44.022;2023-02-01T01:03:35;99923.16;;;1.21;55.25
77047;BME280;65977;56.380;44.022;2023-02-01T01:06:06;99924.75;;;1.24;55.08
77047;BME280;65977;56.380;44.022;2023-02-01T01:08:33;99927.34;;;1.24;54.74
77047;BME280;65977;56.380;44.022;2023-02-01T01:11:13;99931.81;;;1.22;54.82
77047;BME280;65977;56.380;44.022;2023-02-01T01:13:40;99937.00;;;1.22;55.03
77047;BME280;65977;56.380;44.022;2023-02-01T01:16:07;99938.66;;;1.23;55.06
77047;BME280;65977;56.380;44.022;2023-02-01T01:18:34;99927.34;;;1.24;55.20
77047;BME280;65977;56.380;44.022;2023-02-01T01:21:00;99930.22;;;1.19;55.55
77047;BME280;65977;56.380;44.022;2023-02-01T01:23:27;99927.41;;;1.22;55.37
77047;BME280;65977;56.380;44.022;2023-02-01T01:25:53;99928.41;;;1.20;55.43
77047;BME280;65977;56.380;44.022;2023-02-01T01:28:19;99927.59;;;1.19;54.92
77047;BME280;65977;56.380;44.022;2023-02-01T01:30:45;99926.03;;;1.17;55.94
77047;BME280;65977;56.380;44.022;2023-02-01T01:33:11;99924.81;;;1.22;55.08
77047;BME280;65977;56.380;44.022;2023-02-01T01:35:37;99928.69;;;1.15;55.42
77047;BME280;65977;56.380;44.022;2023-02-01T01:38:02;99934.31;;;1.23;55.17
77047;BME280;65977;56.380;44.022;2023-02-01T01:40:29;99937.66;;;1.25;55.63
77047;BME280;65977;56.380;44.022;2023-02-01T01:42:55;99930.78;;;1.24;55.27
77047;BME280;65977;56.380;44.022;2023-02-01T01:45:33;99932.38;;;1.27;55.65
77047;BME280;65977;56.380;44.022;2023-02-01T01:48:26;99931.69;;;1.23;55.08
77047;BME280;65977;56.380;44.022;2023-02-01T01:51:13;99939.41;;;1.25;55.18
77047;BME280;65977;56.380;44.022;2023-02-01T01:53:45;99942.59;;;1.30;55.39
77047;BME280;65977;56.380;44.022;2023-02-01T01:56:13;99950.81;;;1.22;55.34
77047;BME280;65977;56.380;44.022;2023-02-01T01:58:40;99942.84;;;1.25;55.38
77047;BME280;65977;56.380;44.022;2023-02-01T02:01:06;99938.81;;;1.20;55.62
77047;BME280;65977;56.380;44.022;2023-02-01T02:03:46;99950.09;;;1.20;55.45
77047;BME280;65977;56.380;44.022;2023-02-01T02:06:54;99950.09;;;1.20;55.45
77047;BME280;65977;56.380;44.022;2023-02-01T02:09:22;99963.94;;;1.21;55.32
77047;BME280;65977;56.380;44.022;2023-02-01T02:11:48;99958.41;;;1.11;55.57
77047;BME280;65977;56.380;44.022;2023-02-01T02:14:17;99969.03;;;1.22;55.68
77047;BME280;65977;56.380;44.022;2023-02-01T02:37:07;99960.34;;;1.08;55.67
77047;BME280;65977;56.380;44.022;2023-02-01T02:42:14;99966.22;;;1.11;56.12
77047;BME280;65977;56.380;44.022;2023-02-01T02:45:20;99953.56;;;1.05;56.11
77047;BME280;65977;56.380;44.022;2023-02-01T02:48:43;99961.25;;;1.07;55.86
77047;BME280;65977;56.380;44.022;2023-02-01T02:51:27;99968.16;;;1.08;55.99
77047;BME280;65977;56.380;44.022;2023-02-01T02:54:21;99967.97;;;1.11;55.88
77047;BME280;65977;56.380;44.022;2023-02-01T02:57:09;99959.34;;;1.10;55.84
77047;BME280;65977;56.380;44.022;2023-02-01T02:59:55;99964.28;;;1.15;55.95
77047;BME280;65977;56.380;44.022;2023-02-01T03:02:41;99964.09;;;1.18;55.68
77047;BME280;65977;56.380;44.022;2023-02-01T03:05:32;99966.88;;;1.15;55.80
77047;BME280;65977;56.380;44.022;2023-02-01T03:08:08;99971.06;;;1.17;55.96
77047;BME280;65977;56.380;44.022;2023-02-01T03:10:52;99965.22;;;1.14;55.91
77047;BME280;65977;56.380;44.022;2023-02-01T03:19:01;99972.25;;;1.12;55.94
77047;BME280;65977;56.380;44.022;2023-02-01T03:21:37;99978.47;;;1.09;56.13
77047;BME280;65977;56.380;44.022;2023-02-01T03:24:07;99987.03;;;1.11;55.97
77047;BME280;65977;56.380;44.022;2023-02-01T03:26:37;99984.34;;;1.13;56.12
77047;BME280;65977;56.380;44.022;2023-02-01T03:29:18;99974.69;;;1.15;55.60
77047;BME280;65977;56.380;44.022;2023-02-01T03:31:45;99974.78;;;1.13;56.00
77047;BME280;65977;56.380;44.022;2023-02-01T03:34:12;99981.63;;;1.14;55.78
77047;BME280;65977;56.380;44.022;2023-02-01T03:36:49;99982.31;;;1.18;55.71
77047;BME280;65977;56.380;44.022;2023-02-01T03:42:04;99981.47;;;1.17;55.79
77047;BME280;65977;56.380;44.022;2023-02-01T03:44:37;99989.13;;;1.20;55.68
77047;BME280;65977;56.380;44.022;2023-02-01T03:47:23;99990.69;;;1.23;55.67
77047;BME280;65977;56.380;44.022;2023-02-01T03:49:54;99993.25;;;1.24;55.42
77047;BME280;65977;56.380;44.022;2023-02-01T03:52:42;99995.25;;;1.19;55.70
77047;BME280;65977;56.380;44.022;2023-02-01T03:55:10;100001.22;;;1.21;55.87
77047;BME280;65977;56.380;44.022;2023-02-01T03:57:43;99998.50;;;1.23;55.49
77047;BME280;65977;56.380;44.022;2023-02-01T04:00:21;99997.50;;;1.25;55.32
77047;BME280;65977;56.380;44.022;2023-02-01T04:02:48;99996.91;;;1.20;55.50
77047;BME280;65977;56.380;44.022;2023-02-01T04:05:13;100006.25;;;1.24;55.33
77047;BME280;65977;56.380;44.022;2023-02-01T04:07:39;100013.13;;;1.25;55.32
77047;BME280;65977;56.380;44.022;2023-02-01T04:10:06;100008.06;;;1.22;55.23
77047;BME280;65977;56.380;44.022;2023-02-01T04:12:32;100024.38;;;1.26;55.60
77047;BME280;65977;56.380;44.022;2023-02-01T04:14:57;100022.59;;;1.26;55.25
77047;BME280;65977;56.380;44.022;2023-02-01T04:17:23;100020.66;;;1.30;55.20
77047;BME280;65977;56.380;44.022;2023-02-01T04:19:49;100020.66;;;1.30;55.29
77047;BME280;65977;56.380;44.022;2023-02-01T04:22:15;100025.97;;;1.28;55.26
77047;BME280;65977;56.380;44.022;2023-02-01T04:24:40;100029.25;;;1.16;55.52
77047;BME280;65977;56.380;44.022;2023-02-01T04:27:06;100035.53;;;1.28;55.44
77047;BME280;65977;56.380;44.022;2023-02-01T04:29:31;100038.50;;;1.22;55.31
77047;BME280;65977;56.380;44.022;2023-02-01T04:31:57;100041.75;;;1.25;55.43
77047;BME280;65977;56.380;44.022;2023-02-01T04:34:23;100043.59;;;1.23;55.97
77047;BME280;65977;56.380;44.022;2023-02-01T04:36:50;100053.25;;;1.21;55.42
77047;BME280;65977;56.380;44.022;2023-02-01T04:39:16;100044.50;;;1.22;55.47
77047;BME280;65977;56.380;44.022;2023-02-01T04:41:43;100041.91;;;1.22;55.90
77047;BME280;65977;56.380;44.022;2023-02-01T04:44:18;100049.06;;;1.19;55.63
77047;BME280;65977;56.380;44.022;2023-02-01T04:46:45;100030.00;;;1.18;55.25
77047;BME280;65977;56.380;44.022;2023-02-01T04:49:12;100046.28;;;1.22;55.34
77047;BME280;65977;56.380;44.022;2023-02-01T04:51:39;100059.47;;;1.19;55.15
77047;BME280;65977;56.380;44.022;2023-02-01T04:54:05;100050.06;;;1.16;55.43
77047;BME280;65977;56.380;44.022;2023-02-01T04:56:30;100057.78;;;1.18;55.42
77047;BME280;65977;56.380;44.022;2023-02-01T04:58:56;100061.81;;;1.23;55.37
77047;BME280;65977;56.380;44.022;2023-02-01T05:01:22;100061.13;;;1.20;55.76
77047;BME280;65977;56.380;44.022;2023-02-01T05:03:49;100055.19;;;1.18;55.71
77047;BME280;65977;56.380;44.022;2023-02-01T05:06:15;100067.50;;;1.14;55.81
77047;BME280;65977;56.380;44.022;2023-02-01T05:08:41;100060.97;;;1.07;55.23
77047;BME280;65977;56.380;44.022;2023-02-01T05:11:06;100068.50;;;1.12;55.48
77047;BME280;65977;56.380;44.022;2023-02-01T05:13:52;100071.88;;;1.14;55.68
77047;BME280;65977;56.380;44.022;2023-02-01T05:16:18;100077.75;;;1.17;55.79
77047;BME280;65977;56.380;44.022;2023-02-01T05:18:43;100071.63;;;1.18;55.51
77047;BME280;65977;56.380;44.022;2023-02-01T05:21:09;100079.03;;;1.26;55.08
77047;BME280;65977;56.380;44.022;2023-02-01T05:23:35;100071.97;;;1.28;55.45
77047;BME280;65977;56.380;44.022;2023-02-01T05:26:20;100082.19;;;1.31;55.30
77047;BME280;65977;56.380;44.022;2023-02-01T05:28:46;100083.91;;;1.32;55.13
77047;BME280;65977;56.380;44.022;2023-02-01T05:31:11;100084.47;;;1.37;55.12
77047;BME280;65977;56.380;44.022;2023-02-01T05:33:37;100078.16;;;1.41;54.95
77047;BME280;65977;56.380;44.022;2023-02-01T05:36:03;100081.94;;;1.36;54.46
77047;BME280;65977;56.380;44.022;2023-02-01T05:38:29;100080.09;;;1.38;54.95
77047;BME280;65977;56.380;44.022;2023-02-01T05:40:57;100085.28;;;1.38;54.73
77047;BME280;65977;56.380;44.022;2023-02-01T05:43:23;100086.31;;;1.35;55.00
77047;BME280;65977;56.380;44.022;2023-02-01T05:45:49;100071.84;;;1.45;54.79
77047;BME280;65977;56.380;44.022;2023-02-01T05:48:14;100081.19;;;1.49;54.51
77047;BME280;65977;56.380;44.022;2023-02-01T05:50:40;100080.06;;;1.53;54.44
77047;BME280;65977;56.380;44.022;2023-02-01T05:53:05;100080.31;;;1.64;53.73
77047;BME280;65977;56.380;44.022;2023-02-01T05:55:32;100091.31;;;1.69;53.83
77047;BME280;65977;56.380;44.022;2023-02-01T05:57:57;100090.72;;;1.80;53.21
77047;BME280;65977;56.380;44.022;2023-02-01T06:00:23;100085.81;;;1.89;53.19
77047;BME280;65977;56.380;44.022;2023-02-01T06:02:49;100086.28;;;1.96;52.86
77047;BME280;65977;56.380;44.022;2023-02-01T06:05:15;100084.06;;;2.04;52.29
77047;BME280;65977;56.380;44.022;2023-02-01T06:07:40;100088.75;;;2.13;52.29
77047;BME280;65977;56.380;44.022;2023-02-01T06:10:06;100089.97;;;2.22;51.95
77047;BME280;65977;56.380;44.022;2023-02-01T06:12:32;100088.50;;;2.32;51.50
77047;BME280;65977;56.380;44.022;2023-02-01T06:14:58;100101.47;;;2.47;51.66
77047;BME280;65977;56.380;44.022;2023-02-01T06:17:24;100103.81;;;2.52;51.08
77047;BME280;65977;56.380;44.022;2023-02-01T06:19:50;100106.44;;;2.66;50.78
77047;BME280;65977;56.380;44.022;2023-02-01T06:22:16;100096.09;;;2.79;50.07
77047;BME280;65977;56.380;44.022;2023-02-01T06:24:42;100112.03;;;2.88;49.50
77047;BME280;65977;56.380;44.022;2023-02-01T06:27:08;100104.56;;;2.96;49.20
77047;BME280;65977;56.380;44.022;2023-02-01T06:29:35;100111.63;;;3.23;49.38
77047;BME280;65977;56.380;44.022;2023-02-01T06:32:01;100106.81;;;3.43;49.14
77047;BME280;65977;56.380;44.022;2023-02-01T06:34:26;100108.78;;;3.66;48.31
77047;BME280;65977;56.380;44.022;2023-02-01T06:36:52;100106.25;;;3.92;47.27
77047;BME280;65977;56.380;44.022;2023-02-01T06:39:18;100114.06;;;4.18;46.81
77047;BME280;65977;56.380;44.022;2023-02-01T06:41:48;100107.63;;;4.49;45.25
77047;BME280;65977;56.380;44.022;2023-02-01T06:44:14;100114.56;;;4.75;45.08
77047;BME280;65977;56.380;44.022;2023-02-01T06:46:40;100116.19;;;5.01;46.07
77047;BME280;65977;56.380;44.022;2023-02-01T06:49:05;100111.78;;;5.02;44.46
77047;BME280;65977;56.380;44.022;2023-02-01T06:51:31;100112.69;;;5.13;44.95
77047;BME280;65977;56.380;44.022;2023-02-01T06:53:57;100094.41;;;5.01;44.17
77047;BME280;65977;56.380;44.022;2023-02-01T06:56:23;100120.50;;;5.02;44.33
77047;BME280;65977;56.380;44.022;2023-02-01T06:58:49;100126.97;;;4.97;44.58
77047;BME280;65977;56.380;44.022;2023-02-01T07:01:15;100120.31;;;4.93;44.76
77047;BME280;65977;56.380;44.022;2023-02-01T07:03:41;100131.72;;;4.79;44.40
77047;BME280;65977;56.380;44.022;2023-02-01T07:06:08;100125.31;;;4.71;44.13
77047;BME280;65977;56.380;44.022;2023-02-01T07:08:35;100130.97;;;4.65;44.49
77047;BME280;65977;56.380;44.022;2023-02-01T07:11:13;100125.03;;;4.75;44.91
77047;BME280;65977;56.380;44.022;2023-02-01T07:13:39;100127.31;;;4.67;44.14
77047;BME280;65977;56.380;44.022;2023-02-01T07:16:07;100127.53;;;4.77;44.55
77047;BME280;65977;56.380;44.022;2023-02-01T07:18:34;100127.84;;;4.85;44.47
77047;BME280;65977;56.380;44.022;2023-02-01T07:21:00;100137.56;;;4.95;44.24
77047;BME280;65977;56.380;44.022;2023-02-01T07:23:26;100139.97;;;4.98;44.43
77047;BME280;65977;56.380;44.022;2023-02-01T07:25:57;100144.59;;;4.95;43.89
77047;BME280;65977;56.380;44.022;2023-02-01T07:28:23;100142.06;;;4.81;43.62
77047;BME280;65977;56.380;44.022;2023-02-01T07:30:49;100131.91;;;4.89;43.98
77047;BME280;65977;56.380;44.022;2023-02-01T07:33:22;100140.91;;;4.97;44.17
77047;BME280;65977;56.380;44.022;2023-02-01T07:35:50;100126.97;;;4.97;44.03
77047;BME280;65977;56.380;44.022;2023-02-01T07:38:17;100135.88;;;5.07;43.61
77047;BME280;65977;56.380;44.022;2023-02-01T07:40:43;100135.97;;;5.18;43.55
77047;BME280;65977;56.380;44.022;2023-02-01T07:43:09;100140.16;;;5.21;43.27
77047;BME280;65977;56.380;44.022;2023-02-01T07:45:35;100135.00;;;5.19;43.02
77047;BME280;65977;56.380;44.022;2023-02-01T07:48:02;100128.97;;;5.19;43.50
77047;BME280;65977;56.380;44.022;2023-02-01T07:50:28;100128.97;;;5.19;43.12
77047;BME280;65977;56.380;44.022;2023-02-01T07:52:53;100133.97;;;5.22;43.33
77047;BME280;65977;56.380;44.022;2023-02-01T07:55:20;100139.09;;;5.23;43.02
77047;BME280;65977;56.380;44.022;2023-02-01T07:57:50;100137.72;;;5.30;43.26
77047;BME280;65977;56.380;44.022;2023-02-01T08:00:16;100132.66;;;5.40;43.07
77047;BME280;65977;56.380;44.022;2023-02-01T08:03:00;100137.06;;;5.39;42.54
77047;BME280;65977;56.380;44.022;2023-02-01T08:05:27;100136.00;;;5.42;42.42
77047;BME280;65977;56.380;44.022;2023-02-01T08:07:52;100125.09;;;5.48;42.81
77047;BME280;65977;56.380;44.022;2023-02-01T08:10:19;100135.59;;;5.48;42.73
77047;BME280;65977;56.380;44.022;2023-02-01T08:12:45;100134.25;;;5.30;42.34
77047;BME280;65977;56.380;44.022;2023-02-01T08:15:16;100142.31;;;5.27;43.09
77047;BME280;65977;56.380;44.022;2023-02-01T08:17:51;100143.00;;;5.18;43.16
77047;BME280;65977;56.380;44.022;2023-02-01T08:20:18;100143.41;;;5.11;43.34
77047;BME280;65977;56.380;44.022;2023-02-01T08:22:44;100145.31;;;4.97;43.33
77047;BME280;65977;56.380;44.022;2023-02-01T08:25:10;100141.84;;;4.96;43.60
77047;BME280;65977;56.380;44.022;2023-02-01T08:27:36;100144.59;;;4.95;43.94
77047;BME280;65977;56.380;44.022;2023-02-01T08:30:03;100145.19;;;4.98;43.90
77047;BME280;65977;56.380;44.022;2023-02-01T08:32:30;100145.41;;;5.08;43.67
77047;BME280;65977;56.380;44.022;2023-02-01T08:34:56;100141.31;;;5.17;43.31
77047;BME280;65977;56.380;44.022;2023-02-01T08:37:21;100144.53;;;5.33;43.65
77047;BME280;65977;56.380;44.022;2023-02-01T08:39:47;100140.34;;;5.66;43.05
77047;BME280;65977;56.380;44.022;2023-02-01T08:42:15;100145.06;;;5.98;42.71
77047;BME280;65977;56.380;44.022;2023-02-01T08:45:00;100132.00;;;6.09;41.50
77047;BME280;65977;56.380;44.022;2023-02-01T08:47:25;100141.09;;;6.16;41.33
77047;BME280;65977;56.380;44.022;2023-02-01T08:49:51;100127.88;;;6.17;41.48
77047;BME280;65977;56.380;44.022;2023-02-01T08:52:18;100133.22;;;6.16;41.87
77047;BME280;65977;56.380;44.022;2023-02-01T08:54:44;100132.72;;;6.11;42.11
77047;BME280;65977;56.380;44.022;2023-02-01T08:57:10;100128.03;;;6.03;41.88
77047;BME280;65977;56.380;44.022;2023-02-01T08:59:36;100130.88;;;6.00;42.31
77047;BME280;65977;56.380;44.022;2023-02-01T09:02:01;100136.59;;;5.94;42.73
77047;BME280;65977;56.380;44.022;2023-02-01T09:04:27;100133.47;;;5.89;43.07
77047;BME280;65977;56.380;44.022;2023-02-01T09:06:53;100135.63;;;5.95;43.41
77047;BME280;65977;56.380;44.022;2023-02-01T09:09:24;100144.25;;;5.97;43.12
77047;BME280;65977;56.380;44.022;2023-02-01T09:11:49;100136.38;;;5.97;43.22
77047;BME280;65977;56.380;44.022;2023-02-01T09:14:16;100150.66;;;5.93;43.30
77047;BME280;65977;56.380;44.022;2023-02-01T09:16:42;100147.09;;;5.94;43.55
77047;BME280;65977;56.380;44.022;2023-02-01T09:19:08;100149.81;;;5.80;44.26
77047;BME280;65977;56.380;44.022;2023-02-01T09:21:34;100156.94;;;5.54;45.24
77047;BME280;65977;56.380;44.022;2023-02-01T09:24:00;100169.00;;;5.44;45.99
77047;BME280;65977;56.380;44.022;2023-02-01T09:26:26;100155.00;;;5.33;46.29
77047;BME280;65977;56.380;44.022;2023-02-01T09:28:52;100153.53;;;5.41;46.33
77047;BME280;65977;56.380;44.022;2023-02-01T09:31:19;100152.34;;;5.45;46.06
77047;BME280;65977;56.380;44.022;2023-02-01T09:33:44;100150.59;;;5.46;46.07
77047;BME280;65977;56.380;44.022;2023-02-01T09:36:10;100157.59;;;5.45;46.20
77047;BME280;65977;56.380;44.022;2023-02-01T09:38:36;100147.19;;;5.56;46.18
77047;BME280;65977;56.380;44.022;2023-02-01T09:41:07;100146.28;;;5.81;46.13
77047;BME280;65977;56.380;44.022;2023-02-01T09:46:36;100140.56;;;6.34;44.76
77047;BME280;65977;56.380;44.022;2023-02-01T09:49:12;100134.19;;;6.61;44.43
77047;BME280;65977;56.380;44.022;2023-02-01T09:51:45;100138.63;;;6.82;44.02
77047;BME280;65977;56.380;44.022;2023-02-01T09:54:50;100140.81;;;7.22;43.73
77047;BME280;65977;56.380;44.022;2023-02-01T09:57:28;100145.44;;;7.51;42.73
77047;BME280;65977;56.380;44.022;2023-02-01T10:00:05;100133.38;;;7.60;42.13
77047;BME280;65977;56.380;44.022;2023-02-01T10:02:34;100137.66;;;7.61;41.91
77047;BME280;65977;56.380;44.022;2023-02-01T10:05:03;100131.81;;;7.57;42.41
77047;BME280;65977;56.380;44.022;2023-02-01T10:12:47;100128.34;;;7.35;42.70
77047;BME280;65977;56.380;44.022;2023-02-01T10:26:22;100138.44;;;6.40;44.78
77047;BME280;65977;56.380;44.022;2023-02-01T10:28:49;100135.75;;;6.17;45.49
77047;BME280;65977;56.380;44.022;2023-02-01T10:31:16;100125.13;;;5.95;45.82
77047;BME280;65977;56.380;44.022;2023-02-01T10:34:10;100126.75;;;5.85;46.51
77047;BME280;65977;56.380;44.022;2023-02-01T10:36:49;100139.28;;;5.69;46.77
77047;BME280;65977;56.380;44.022;2023-02-01T10:39:15;100137.94;;;5.63;46.86
77047;BME280;65977;56.380;44.022;2023-02-01T10:41:41;100142.34;;;5.63;46.74
77047;BME280;65977;56.380;44.022;2023-02-01T10:44:14;100139.28;;;5.69;46.93
77047;BME280;65977;56.380;44.022;2023-02-01T10:46:40;100147.19;;;5.80;46.49
77047;BME280;65977;56.380;44.022;2023-02-01T10:49:18;100145.88;;;5.87;46.48
77047;BME280;65977;56.380;44.022;2023-02-01T10:52:06;100139.44;;;5.91;46.68
77047;BME280;65977;56.380;44.022;2023-02-01T10:54:37;100139.97;;;5.84;46.50
77047;BME280;65977;56.380;44.022;2023-02-01T10:57:20;100142.50;;;5.85;46.31
77047;BME280;65977;56.380;44.022;2023-02-01T10:59:46;100141.56;;;5.86;46.35
77047;BME280;65977;56.380;44.022;2023-02-01T11:02:32;100145.63;;;5.78;46.87
77047;BME280;65977;56.380;44.022;2023-02-01T11:05:04;100138.31;;;5.70;46.72
77047;BME280;65977;56.380;44.022;2023-02-01T11:07:31;100152.63;;;5.66;47.16
77047;BME280;65977;56.380;44.022;2023-02-01T11:09:57;100148.84;;;5.57;47.26
77047;BME280;65977;56.380;44.022;2023-02-01T11:12:34;100150.91;;;5.41;47.46
77047;BME280;65977;56.380;44.022;2023-02-01T11:17:35;100153.13;;;5.22;47.60
77047;BME280;65977;56.380;44.022;2023-02-01T11:20:16;100156.41;;;5.13;47.87
77047;BME280;65977;56.380;44.022;2023-02-01T11:22:53;100156.41;;;5.13;47.97
77047;BME280;65977;56.380;44.022;2023-02-01T11:25:20;100151.78;;;5.17;47.73
77047;BME280;65977;56.380;44.022;2023-02-01T11:27:51;100154.69;;;5.25;47.69
77047;BME280;65977;56.380;44.022;2023-02-01T11:30:38;100158.50;;;5.21;47.73
77047;BME280;65977;56.380;44.022;2023-02-01T11:33:12;100163.09;;;5.17;47.79
77047;BME280;65977;56.380;44.022;2023-02-01T11:35:39;100161.13;;;5.08;48.21
77047;BME280;65977;56.380;44.022;2023-02-01T11:38:32;100168.75;;;4.98;48.50
77047;BME280;65977;56.380;44.022;2023-02-01T11:41:26;100173.25;;;4.84;48.54
77047;BME280;65977;56.380;44.022;2023-02-01T11:43:57;100163.53;;;4.86;48.88
77047;BME280;65977;56.380;44.022;2023-02-01T11:46:30;100171.91;;;4.91;48.75
77047;BME280;65977;56.380;44.022;2023-02-01T11:48:57;100175.81;;;4.98;48.50
77047;BME280;65977;56.380;44.022;2023-02-01T11:54:39;100174.44;;;4.80;49.37
77047;BME280;65977;56.380;44.022;2023-02-01T12:13:32;100171.75;;;4.03;51.18
77047;BME280;65977;56.380;44.022;2023-02-01T12:19:03;100167.13;;;3.94;51.48
77047;BME280;65977;56.380;44.022;2023-02-01T12:27:45;100163.13;;;3.88;51.94
77047;BME280;65977;56.380;44.022;2023-02-01T12:30:18;100170.50;;;3.81;52.10
77047;BME280;65977;56.380;44.022;2023-02-01T12:36:19;100165.53;;;3.64;53.08
77047;BME280;65977;56.380;44.022;2023-02-01T12:47:14;100177.72;;;3.37;54.24
77047;BME280;65977;56.380;44.022;2023-02-01T12:52:30;100175.38;;;3.18;55.04
77047;BME280;65977;56.380;44.022;2023-02-01T12:55:28;100178.56;;;3.09;55.15
77047;BME280;65977;56.380;44.022;2023-02-01T12:58:06;100174.09;;;2.97;55.80
77047;BME280;65977;56.380;44.022;2023-02-01T13:00:40;100172.03;;;2.88;56.71
77047;BME280;65977;56.380;44.022;2023-02-01T13:06:06;100183.75;;;2.67;57.76
77047;BME280;65977;56.380;44.022;2023-02-01T13:11:15;100175.63;;;2.58;57.80
77047;BME280;65977;56.380;44.022;2023-02-01T13:16:21;100185.94;;;2.45;58.69
77047;BME280;65977;56.380;44.022;2023-02-01T13:18:59;100189.00;;;2.37;59.10
77047;BME280;65977;56.380;44.022;2023-02-01T13:21:29;100193.63;;;2.32;59.41
77047;BME280;65977;56.380;44.022;2023-02-01T13:23:57;100173.78;;;2.30;58.72
77047;BME280;65977;56.380;44.022;2023-02-01T13:26:23;100180.13;;;2.26;59.18
77047;BME280;65977;56.380;44.022;2023-02-01T13:28:52;100186.34;;;2.23;59.07
77047;BME280;65977;56.380;44.022;2023-02-01T13:34:32;100186.41;;;2.22;59.50
77047;BME280;65977;56.380;44.022;2023-02-01T13:37:27;100176.44;;;2.14;59.84
77047;BME280;65977;56.380;44.022;2023-02-01T13:42:55;100169.94;;;2.21;59.61
77047;BME280;65977;56.380;44.022;2023-02-01T13:45:34;100176.00;;;2.22;60.76
77047;BME280;65977;56.380;44.022;2023-02-01T13:48:04;100177.69;;;2.23;60.39
77047;BME280;65977;56.380;44.022;2023-02-01T13:50:36;100175.13;;;2.21;60.17
77047;BME280;65977;56.380;44.022;2023-02-01T13:55:40;100176.84;;;2.22;60.44
77047;BME280;65977;56.380;44.022;2023-02-01T13:58:31;100173.66;;;2.17;61.40
77047;BME280;65977;56.380;44.022;2023-02-01T14:03:59;100187.09;;;2.25;60.69
77047;BME280;65977;56.380;44.022;2023-02-01T14:11:54;100192.56;;;2.21;61.63
77047;BME280;65977;56.380;44.022;2023-02-01T14:19:24;100182.38;;;2.16;62.00
77047;BME280;65977;56.380;44.022;2023-02-01T14:21:52;100193.75;;;2.15;63.13
77047;BME280;65977;56.380;44.022;2023-02-01T14:24:29;100184.94;;;2.18;62.62
77047;BME280;65977;56.380;44.022;2023-02-01T14:29:43;100194.50;;;2.17;63.88
77047;BME280;65977;56.380;44.022;2023-02-01T14:32:19;100199.63;;;2.19;63.25
77047;BME280;65977;56.380;44.022;2023-02-01T14:44:50;100214.34;;;2.20;63.96
77047;BME280;65977;56.380;44.022;2023-02-01T14:50:02;100201.41;;;2.18;64.17
77047;BME280;65977;56.380;44.022;2023-02-01T14:58:02;100195.09;;;2.22;63.91
77047;BME280;65977;56.380;44.022;2023-02-01T15:00:31;100195.75;;;2.26;63.48
77047;BME280;65977;56.380;44.022;2023-02-01T15:03:40;100200.97;;;2.26;64.17
77047;BME280;65977;56.380;44.022;2023-02-01T15:06:01;100198.94;;;2.31;64.14
77047;BME280;65977;56.380;44.022;2023-02-01T15:08:35;100204.78;;;2.34;63.68
77047;BME280;65977;56.380;44.022;2023-02-01T15:11:06;100204.72;;;2.36;63.80
77047;BME280;65977;56.380;44.022;2023-02-01T15:13:33;100202.97;;;2.36;63.42
77047;BME280;65977;56.380;44.022;2023-02-01T15:18:30;100197.56;;;2.39;63.44
77047;BME280;65977;56.380;44.022;2023-02-01T15:21:01;100203.53;;;2.41;63.61
77047;BME280;65977;56.380;44.022;2023-02-01T15:23:28;100179.69;;;2.33;63.79
77047;BME280;65977;56.380;44.022;2023-02-01T15:25:54;100205.13;;;2.44;63.96
77047;BME280;65977;56.380;44.022;2023-02-01T15:28:21;100196.47;;;2.43;64.04
77047;BME280;65977;56.380;44.022;2023-02-01T15:33:25;100204.84;;;2.48;64.74
77047;BME280;65977;56.380;44.022;2023-02-01T15:35:56;100199.66;;;2.48;63.93
77047;BME280;65977;56.380;44.022;2023-02-01T15:38:43;100198.53;;;2.52;64.42
77047;BME280;65977;56.380;44.022;2023-02-01T15:41:20;100198.53;;;2.52;64.18
77047;BME280;65977;56.380;44.022;2023-02-01T15:44:04;100201.06;;;2.54;63.81
77047;BME280;65977;56.380;44.022;2023-02-01T15:46:45;100208.22;;;2.50;64.47